Judi M. — WCX8376 — position and weather

sailwx.info

Track history (hours):
 
Tides and Currents Weather Stations Pressure Air Temp Water Temp Dewpoint Dewpoint Depression Visibility Wind Speed Wind Dir Waves Ship Positions

Judi M.

Owner: MANKE TUG & BARGE CO INC, SHELTON, WA. More information available from US FCC via Universal Licensing System and Coast Guard Vessel Documentation Center.

Last reported at 2015-Jul-01 22:33 UTC. Time now 2015-Jul-01 23:13 UTC.
Position N 47°47' W 122°26'.

Length 29 m; draft 4 m.

Type: Tow > 200 m length. MMSI: 366740920.

Date/timePositionNaut miles runAvg speedWind from/ knotsBaromVisibWave heightAir tempDewpointWater temp
2015-Jul-01 22:33N 47°47' W 122°26'7 7.5
2015-Jul-01 21:33N 47°40' W 122°27'6 6.3
2015-Jul-01 20:33N 47°35' W 122°22'  
2015-Jun-28 09:08N 47°34' W 122°22'1 1.5
2015-Jun-28 08:33N 47°35' W 122°21'0 0.0
2015-Jun-28 07:32N 47°35' W 122°21'1 0.7
2015-Jun-28 06:11N 47°34' W 122°22'1 1.9
2015-Jun-28 05:28N 47°36' W 122°22'4 5.8
2015-Jun-28 04:47N 47°38' W 122°27'2 7.1
2015-Jun-28 04:33N 47°39' W 122°28'0 6.6
2015-Jun-28 04:31N 47°40' W 122°28'7 6.8
2015-Jun-28 03:33N 47°46' W 122°27'0 7.0
2015-Jun-28 03:30N 47°47' W 122°27'7 7.4
2015-Jun-28 02:33N 47°53' W 122°30'0 6.6
2015-Jun-28 02:30N 47°54' W 122°30'6 6.3
2015-Jun-28 01:30N 47°58' W 122°36'10 0.7
2015-Jun-27 11:22N 48°05' W 122°47'5 6.7
2015-Jun-27 10:33N 48°05' W 122°39'10 9.7
2015-Jun-27 09:33N 47°56' W 122°31'9 8.7
2015-Jun-27 08:33N 47°48' W 122°26'8 8.3
2015-Jun-27 07:33N 47°40' W 122°27'  
2015-Jun-25 01:12N 47°34' W 122°22'2 2.8
2015-Jun-25 00:31N 47°36' W 122°23'2 6.8
2015-Jun-25 00:12N 47°37' W 122°26'4 6.4
2015-Jun-24 23:33N 47°41' W 122°28'0 7.0
2015-Jun-24 23:32N 47°41' W 122°28'7 6.9
2015-Jun-24 22:33N 47°48' W 122°28'0 7.2
2015-Jun-24 22:31N 47°48' W 122°28'7 6.9
2015-Jun-24 21:33N 47°55' W 122°30'0 6.3
2015-Jun-24 21:30N 47°55' W 122°30'6 6.1
2015-Jun-24 20:33N 47°59' W 122°37'23 6.6
2015-Jun-24 17:09N 48°21' W 122°46'5 7.8
2015-Jun-24 16:32N 48°25' W 122°45'8 7.8
2015-Jun-24 15:33N 48°33' W 122°45'7 7.4
2015-Jun-24 14:33N 48°40' W 122°43'7 6.7
2015-Jun-24 13:33N 48°46' W 122°49'7 7.0
2015-Jun-24 12:33N 48°49' W 122°58'8 7.6
2015-Jun-24 11:33N 48°54' W 123°08'7 7.4
2015-Jun-24 10:33N 48°59' W 123°16'7 7.2
2015-Jun-24 09:33N 49°04' W 123°24'7 6.7
2015-Jun-24 08:33N 49°10' W 123°27'7 7.0
2015-Jun-24 07:33N 49°17' W 123°27'7 7.2
2015-Jun-24 06:33N 49°24' W 123°26'7 6.6
2015-Jun-24 05:33N 49°31' W 123°29'0 0.3
2015-Jun-24 04:33N 49°31' W 123°29'0 0.0
2015-Jun-24 04:24N 49°31' W 123°29'0 0.0
2015-Jun-24 03:33N 49°31' W 123°29'0 0.0
2015-Jun-24 02:33N 49°31' W 123°29'0 0.0
2015-Jun-24 01:33N 49°31' W 123°29'0 0.0
2015-Jun-24 01:26N 49°31' W 123°29'0 0.0
2015-Jun-24 00:33N 49°31' W 123°29'0 0.0
2015-Jun-24 00:26N 49°31' W 123°29'0 0.0
2015-Jun-23 23:33N 49°31' W 123°29'0 0.0
2015-Jun-23 22:33N 49°31' W 123°29'0 0.0
2015-Jun-23 19:33N 49°31' W 123°29'0 0.0
2015-Jun-23 19:06N 49°31' W 123°29'125 3.9
2015-Jun-22 11:09N 47°34' W 122°22'0 0.0
2015-Jun-22 10:22N 47°34' W 122°22'0 0.0
2015-Jun-22 04:09N 47°34' W 122°22'0 0.6
2015-Jun-22 03:25N 47°35' W 122°22'4 4.4
2015-Jun-22 02:29N 47°38' W 122°26'7 7.2
2015-Jun-22 01:33N 47°44' W 122°27'8 7.9
2015-Jun-22 00:33N 47°52' W 122°29'8 7.8
2015-Jun-21 23:33N 47°58' W 122°36'  
Track history (hours):
 
Tides and Currents Weather Stations Pressure Air Temp Water Temp Dewpoint Dewpoint Depression Visibility Wind Speed Wind Dir Waves Ship Positions

Judi M.

Owner: MANKE TUG & BARGE CO INC, SHELTON, WA. More information available from US FCC via Universal Licensing System and Coast Guard Vessel Documentation Center.

Last reported at 2015-Jul-01 22:33 UTC. Time now 2015-Jul-01 23:13 UTC.
Position N 47°47' W 122°26'.

Length 29 m; draft 4 m.

Type: Tow > 200 m length. MMSI: 366740920.

Date/timePositionNaut miles runAvg speedWind from/ knotsBaromVisibWave heightAir tempDewpointWater temp
2015-Jul-01 22:33N 47°47' W 122°26'7 7.5
2015-Jul-01 21:33N 47°40' W 122°27'6 6.3
2015-Jul-01 20:33N 47°35' W 122°22'  
2015-Jun-28 09:08N 47°34' W 122°22'1 1.5
2015-Jun-28 08:33N 47°35' W 122°21'0 0.0
2015-Jun-28 07:32N 47°35' W 122°21'1 0.7
2015-Jun-28 06:11N 47°34' W 122°22'1 1.9
2015-Jun-28 05:28N 47°36' W 122°22'4 5.8
2015-Jun-28 04:47N 47°38' W 122°27'2 7.1
2015-Jun-28 04:33N 47°39' W 122°28'0 6.6
2015-Jun-28 04:31N 47°40' W 122°28'7 6.8
2015-Jun-28 03:33N 47°46' W 122°27'0 7.0
2015-Jun-28 03:30N 47°47' W 122°27'7 7.4
2015-Jun-28 02:33N 47°53' W 122°30'0 6.6
2015-Jun-28 02:30N 47°54' W 122°30'6 6.3
2015-Jun-28 01:30N 47°58' W 122°36'10 0.7
2015-Jun-27 11:22N 48°05' W 122°47'5 6.7
2015-Jun-27 10:33N 48°05' W 122°39'10 9.7
2015-Jun-27 09:33N 47°56' W 122°31'9 8.7
2015-Jun-27 08:33N 47°48' W 122°26'8 8.3
2015-Jun-27 07:33N 47°40' W 122°27'  
2015-Jun-25 01:12N 47°34' W 122°22'2 2.8
2015-Jun-25 00:31N 47°36' W 122°23'2 6.8
2015-Jun-25 00:12N 47°37' W 122°26'4 6.4
2015-Jun-24 23:33N 47°41' W 122°28'0 7.0
2015-Jun-24 23:32N 47°41' W 122°28'7 6.9
2015-Jun-24 22:33N 47°48' W 122°28'0 7.2
2015-Jun-24 22:31N 47°48' W 122°28'7 6.9
2015-Jun-24 21:33N 47°55' W 122°30'0 6.3
2015-Jun-24 21:30N 47°55' W 122°30'6 6.1
2015-Jun-24 20:33N 47°59' W 122°37'23 6.6
2015-Jun-24 17:09N 48°21' W 122°46'5 7.8
2015-Jun-24 16:32N 48°25' W 122°45'8 7.8
2015-Jun-24 15:33N 48°33' W 122°45'7 7.4
2015-Jun-24 14:33N 48°40' W 122°43'7 6.7
2015-Jun-24 13:33N 48°46' W 122°49'7 7.0
2015-Jun-24 12:33N 48°49' W 122°58'8 7.6
2015-Jun-24 11:33N 48°54' W 123°08'7 7.4
2015-Jun-24 10:33N 48°59' W 123°16'7 7.2
2015-Jun-24 09:33N 49°04' W 123°24'7 6.7
2015-Jun-24 08:33N 49°10' W 123°27'7 7.0
2015-Jun-24 07:33N 49°17' W 123°27'7 7.2
2015-Jun-24 06:33N 49°24' W 123°26'7 6.6
2015-Jun-24 05:33N 49°31' W 123°29'0 0.3
2015-Jun-24 04:33N 49°31' W 123°29'0 0.0
2015-Jun-24 04:24N 49°31' W 123°29'0 0.0
2015-Jun-24 03:33N 49°31' W 123°29'0 0.0
2015-Jun-24 02:33N 49°31' W 123°29'0 0.0
2015-Jun-24 01:33N 49°31' W 123°29'0 0.0
2015-Jun-24 01:26N 49°31' W 123°29'0 0.0
2015-Jun-24 00:33N 49°31' W 123°29'0 0.0
2015-Jun-24 00:26N 49°31' W 123°29'0 0.0
2015-Jun-23 23:33N 49°31' W 123°29'0 0.0
2015-Jun-23 22:33N 49°31' W 123°29'0 0.0
2015-Jun-23 19:33N 49°31' W 123°29'0 0.0
2015-Jun-23 19:06N 49°31' W 123°29'125 3.9
2015-Jun-22 11:09N 47°34' W 122°22'0 0.0
2015-Jun-22 10:22N 47°34' W 122°22'0 0.0
2015-Jun-22 04:09N 47°34' W 122°22'0 0.6
2015-Jun-22 03:25N 47°35' W 122°22'4 4.4
2015-Jun-22 02:29N 47°38' W 122°26'7 7.2
2015-Jun-22 01:33N 47°44' W 122°27'8 7.9
2015-Jun-22 00:33N 47°52' W 122°29'8 7.8
2015-Jun-21 23:33N 47°58' W 122°36'  

Dump ship's entire track history